Time;durP1;ratioP1;P1;durP2;ratioP2;P2;SDS_P1;SDS_P2;PMS_P1;PMS_P2;Temp;Humidity;BMP_temperature;BMP_pressure;BME280_temperature;BME280_humidity;BME280_pressure;Samples;Min_cycle;Max_cycle;Signal;HPM_P1;HPM_P2
2023/10/08 00:01:06;;;;;;;7.50;1.40;;;12.10;95.60;;;;;;4995107;28;20448;-48
2023/10/08 00:03:33;;;;;;;13.77;2.78;;;12.10;95.60;;;;;;5006780;28;20061;-49
2023/10/08 00:06:07;;;;;;;11.07;2.03;;;12.00;95.40;;;;;;5014571;28;20030;-50
2023/10/08 00:08:35;;;;;;;12.90;1.75;;;12.00;95.40;;;;;;5012937;28;20129;-49
2023/10/08 00:11:10;;;;;;;14.45;2.35;;;12.00;95.30;;;;;;5021218;28;20065;-48
2023/10/08 00:13:48;;;;;;;8.60;2.13;;;12.00;95.30;;;;;;5038450;28;20040;-51
2023/10/08 00:16:28;;;;;;;10.65;2.38;;;11.90;95.10;;;;;;5024551;28;20047;-49
2023/10/08 00:18:58;;;;;;;8.85;1.98;;;11.90;95.00;;;;;;5049301;28;20036;-49
2023/10/08 00:21:26;;;;;;;7.65;1.33;;;11.90;94.90;;;;;;5022999;28;20048;-48
2023/10/08 00:23:55;;;;;;;5.95;1.27;;;11.90;94.90;;;;;;5055077;28;20044;-52
2023/10/08 00:26:35;;;;;;;6.38;1.50;;;11.90;94.60;;;;;;5029982;28;20055;-48
2023/10/08 00:29:06;;;;;;;;;;;11.90;94.60;;;;;;5050174;28;20115;-48
2023/10/08 00:31:41;;;;;;;8.02;2.20;;;11.90;94.40;;;;;;5037081;28;20329;-48
2023/10/08 00:34:19;;;;;;;9.40;1.98;;;11.90;94.40;;;;;;5050596;28;20037;-50
2023/10/08 00:36:47;;;;;;;8.10;2.33;;;11.90;94.40;;;;;;5035276;28;20374;-48
2023/10/08 00:39:16;;;;;;;10.77;2.88;;;11.90;94.20;;;;;;5042306;28;20045;-48
2023/10/08 00:41:45;;;;;;;7.28;1.45;;;11.90;94.20;;;;;;5053427;28;20025;-50
2023/10/08 00:44:22;;;;;;;5.78;1.33;;;11.90;93.80;;;;;;5035005;28;20041;-52
2023/10/08 00:47:06;;;;;;;7.65;1.80;;;11.80;93.70;;;;;;5026126;28;20110;-48
2023/10/08 00:57:28;;;;;;;10.88;2.38;;;12.00;93.80;;;;;;5048658;28;20070;-48
2023/10/08 01:00:03;;;;;;;9.60;1.52;;;12.00;93.90;;;;;;5033788;28;20028;-49
2023/10/08 01:02:49;;;;;;;9.73;2.22;;;12.00;93.90;;;;;;5034317;28;20033;-52
2023/10/08 01:05:23;;;;;;;7.93;1.73;;;11.90;93.70;;;;;;5043507;28;20037;-49
2023/10/08 01:07:51;;;;;;;5.70;1.48;;;11.90;93.60;;;;;;5040267;28;20029;-48
2023/10/08 01:10:21;;;;;;;6.80;1.58;;;11.90;93.70;;;;;;5053532;28;20048;-48
2023/10/08 01:15:35;;;;;;;6.30;1.30;;;12.00;93.70;;;;;;5027922;28;20045;-49
2023/10/08 01:18:14;;;;;;;9.07;1.55;;;12.00;93.80;;;;;;5040562;28;20025;-53
2023/10/08 01:20:54;;;;;;;12.07;2.75;;;12.00;93.80;;;;;;5041626;28;20351;-50
2023/10/08 01:23:20;;;;;;;7.15;1.38;;;12.00;93.80;;;;;;5037950;28;20036;-49
2023/10/08 01:25:50;;;;;;;9.70;1.70;;;11.90;93.40;;;;;;5035706;28;20048;-48
2023/10/08 01:28:28;;;;;;;;;;;11.90;93.30;;;;;;5033580;28;20659;-49
2023/10/08 01:31:00;;;;;;;11.85;1.50;;;11.90;93.10;;;;;;5037558;28;19913;-51
2023/10/08 01:33:31;;;;;;;8.30;1.65;;;11.80;92.70;;;;;;5035735;28;20041;-50
2023/10/08 01:36:03;;;;;;;6.22;1.60;;;11.80;92.70;;;;;;5034637;28;20052;-48
2023/10/08 01:38:33;;;;;;;6.00;2.17;;;11.80;92.70;;;;;;5034295;28;20037;-48
2023/10/08 01:41:05;;;;;;;5.32;1.08;;;11.70;92.10;;;;;;5018674;28;20038;-48
2023/10/08 01:43:34;;;;;;;8.00;1.48;;;11.70;92.10;;;;;;5052657;28;20404;-48
2023/10/08 01:46:03;;;;;;;6.45;1.50;;;11.80;92.10;;;;;;5038776;28;20030;-48
2023/10/08 01:48:37;;;;;;;4.68;1.13;;;11.80;92.00;;;;;;5039865;28;20025;-48
2023/10/08 01:51:24;;;;;;;6.55;1.60;;;11.90;92.10;;;;;;5051186;28;20064;-49
2023/10/08 01:53:55;;;;;;;9.50;1.58;;;11.80;92.10;;;;;;5049323;28;20036;-48
2023/10/08 01:56:22;;;;;;;3.33;1.30;;;11.80;92.10;;;;;;5050812;28;20037;-48
2023/10/08 01:58:47;;;;;;;3.05;1.00;;;11.90;92.30;;;;;;5050430;28;20813;-49
2023/10/08 02:01:22;;;;;;;6.07;1.60;;;11.90;92.40;;;;;;5049645;28;20099;-51
2023/10/08 02:03:49;;;;;;;4.95;1.50;;;11.90;92.30;;;;;;5051132;28;20607;-52
2023/10/08 02:06:16;;;;;;;3.80;1.02;;;11.90;92.60;;;;;;5052570;28;20029;-49
2023/10/08 02:08:42;;;;;;;5.65;1.40;;;11.90;92.60;;;;;;5045242;28;20052;-51
2023/10/08 02:11:10;;;;;;;4.38;1.08;;;11.90;92.70;;;;;;5052502;28;20150;-50
2023/10/08 02:13:37;;;;;;;4.72;1.30;;;11.90;92.80;;;;;;5052644;28;20404;-49
2023/10/08 02:16:04;;;;;;;4.80;1.58;;;11.90;93.00;;;;;;5029339;28;20362;-50
2023/10/08 02:18:31;;;;;;;8.35;1.48;;;11.90;93.20;;;;;;5038846;28;20052;-50
2023/10/08 02:20:58;;;;;;;3.35;1.13;;;12.00;93.30;;;;;;5052282;28;20470;-50
2023/10/08 02:23:25;;;;;;;4.15;1.00;;;12.00;93.30;;;;;;5039620;28;20111;-49
2023/10/08 02:25:54;;;;;;;5.93;1.35;;;12.00;93.30;;;;;;5051129;28;20118;-49
2023/10/08 02:28:24;;;;;;;5.88;1.70;;;12.00;93.50;;;;;;5052652;28;20323;-49
2023/10/08 02:30:51;;;;;;;;;;;12.00;93.60;;;;;;5033449;28;20106;-53
2023/10/08 02:33:19;;;;;;;4.97;1.23;;;12.00;93.60;;;;;;5034210;28;19913;-51
2023/10/08 02:35:47;;;;;;;3.65;1.30;;;12.00;93.60;;;;;;5051625;28;20020;-52
2023/10/08 02:38:22;;;;;;;3.50;0.95;;;12.00;93.70;;;;;;5047798;28;20017;-49
2023/10/08 02:40:59;;;;;;;4.60;1.40;;;12.00;93.80;;;;;;5032582;28;20033;-52
2023/10/08 02:43:30;;;;;;;5.47;1.20;;;12.00;93.90;;;;;;5034933;28;20040;-49
2023/10/08 02:45:59;;;;;;;5.63;1.30;;;12.00;93.80;;;;;;5052142;28;20037;-51
2023/10/08 02:48:27;;;;;;;4.03;1.87;;;11.90;93.70;;;;;;5045379;28;20057;-50
2023/10/08 02:50:55;;;;;;;6.05;1.83;;;11.90;93.80;;;;;;5032556;28;20280;-53
2023/10/08 02:53:25;;;;;;;7.75;2.22;;;11.90;93.80;;;;;;5034814;28;20033;-50
2023/10/08 02:55:54;;;;;;;3.67;1.48;;;11.90;93.60;;;;;;5052354;28;20048;-49
2023/10/08 02:58:21;;;;;;;8.18;1.65;;;11.90;93.80;;;;;;5051872;28;20381;-49
2023/10/08 03:00:49;;;;;;;4.55;1.10;;;11.90;93.80;;;;;;5052188;28;20033;-51
2023/10/08 03:03:22;;;;;;;9.45;1.70;;;11.90;93.80;;;;;;5037517;28;20124;-49
2023/10/08 03:06:11;;;;;;;7.03;1.45;;;11.90;93.90;;;;;;5032629;28;20087;-51
2023/10/08 03:08:41;;;;;;;4.70;1.42;;;11.90;94.00;;;;;;5047095;28;20044;-49
2023/10/08 03:11:17;;;;;;;5.93;1.52;;;11.90;94.00;;;;;;5048287;28;20420;-50
2023/10/08 03:13:46;;;;;;;6.35;1.80;;;11.90;94.00;;;;;;5053163;28;20033;-53
2023/10/08 03:16:14;;;;;;;4.85;1.40;;;11.90;94.10;;;;;;5053742;28;20017;-51
2023/10/08 03:18:50;;;;;;;8.27;2.17;;;11.90;94.20;;;;;;5049342;28;20035;-54
2023/10/08 03:24:23;;;;;;;6.78;2.25;;;11.90;94.20;;;;;;5053852;28;20439;-51
2023/10/08 03:26:55;;;;;;;7.53;1.83;;;11.90;94.20;;;;;;5055524;28;20033;-49
2023/10/08 03:29:30;;;;;;;10.30;1.80;;;11.90;94.20;;;;;;5054886;28;20358;-49
2023/10/08 03:32:17;;;;;;;7.38;1.63;;;11.90;94.10;;;;;;5045912;28;20037;-50
2023/10/08 03:34:59;;;;;;;4.50;1.50;;;11.90;94.00;;;;;;5031875;28;20037;-49
2023/10/08 03:37:41;;;;;;;6.05;1.77;;;11.90;94.00;;;;;;5047133;28;20030;-51
2023/10/08 03:40:24;;;;;;;5.70;1.73;;;11.80;93.90;;;;;;5054470;28;20379;-51
2023/10/08 03:42:55;;;;;;;3.88;1.40;;;11.80;93.90;;;;;;5048370;28;20037;-49
2023/10/08 03:48:11;;;;;;;6.90;1.50;;;11.60;93.40;;;;;;5035202;28;20080;-49
2023/10/08 03:50:44;;;;;;;4.50;1.33;;;11.50;93.00;;;;;;5055027;28;20108;-49
2023/10/08 03:53:13;;;;;;;11.40;1.80;;;11.60;93.10;;;;;;5037787;28;20061;-53
2023/10/08 03:55:41;;;;;;;4.47;1.40;;;11.60;93.00;;;;;;5054896;28;20063;-50
2023/10/08 03:58:29;;;;;;;6.80;1.40;;;11.60;92.70;;;;;;5045630;28;20056;-51
2023/10/08 04:01:08;;;;;;;5.55;1.60;;;11.60;92.70;;;;;;5025625;28;20036;-51
2023/10/08 04:04:30;;;;;;;7.10;1.73;;;11.70;92.60;;;;;;5025946;28;20067;-51
2023/10/08 04:06:30;;;;;;;3.50;1.42;;;11.70;92.20;;;;;;5027934;28;20045;-50
2023/10/08 04:09:11;;;;;;;5.65;1.55;;;11.60;92.10;;;;;;5035298;28;20033;-49
2023/10/08 04:11:52;;;;;;;7.43;1.15;;;11.60;91.60;;;;;;5025757;28;20200;-48
2023/10/08 04:14:20;;;;;;;6.93;2.13;;;11.50;91.00;;;;;;5034681;28;20037;-48
2023/10/08 04:16:51;;;;;;;8.95;1.23;;;11.60;90.60;;;;;;5018479;28;20099;-49
2023/10/08 04:19:19;;;;;;;5.05;1.33;;;11.60;90.40;;;;;;5020767;28;20029;-48
2023/10/08 04:21:53;;;;;;;10.70;2.03;;;11.60;90.00;;;;;;5032398;28;20090;-49
2023/10/08 04:24:34;;;;;;;3.97;1.20;;;11.60;90.40;;;;;;5024352;28;20522;-48
2023/10/08 04:27:05;;;;;;;5.93;1.48;;;11.70;90.50;;;;;;5029286;28;20346;-51
2023/10/08 04:29:32;;;;;;;8.32;1.25;;;11.80;90.70;;;;;;5031573;28;20389;-48
2023/10/08 04:32:22;;;;;;;7.47;3.03;;;11.80;90.90;;;;;;5032823;28;20029;-48
2023/10/08 04:34:49;;;;;;;5.32;1.45;;;11.80;91.10;;;;;;5021090;28;20056;-50
2023/10/08 04:37:20;;;;;;;5.10;1.35;;;11.80;91.40;;;;;;5020211;28;20041;-49
2023/10/08 04:39:57;;;;;;;5.22;1.48;;;11.80;91.60;;;;;;5022175;28;20084;-48
2023/10/08 04:42:28;;;;;;;7.60;2.13;;;11.80;91.50;;;;;;5034728;28;20044;-48
2023/10/08 04:44:58;;;;;;;8.25;2.67;;;11.80;91.80;;;;;;5028542;28;20022;-49
2023/10/08 04:47:31;;;;;;;6.85;1.98;;;11.90;91.90;;;;;;5018320;28;20467;-51
2023/10/08 04:49:58;;;;;;;6.25;1.42;;;11.90;92.20;;;;;;5027607;28;20033;-51
2023/10/08 04:52:25;;;;;;;8.43;1.63;;;11.90;92.20;;;;;;5032461;28;20044;-48
2023/10/08 04:54:54;;;;;;;8.25;1.92;;;11.80;91.80;;;;;;5034476;28;20438;-49
2023/10/08 04:57:25;;;;;;;7.47;1.93;;;11.70;91.60;;;;;;5033898;28;20040;-48
2023/10/08 04:59:57;;;;;;;8.70;2.60;;;11.60;91.10;;;;;;5020619;28;20040;-48
2023/10/08 05:02:49;;;;;;;12.27;1.60;;;11.60;91.20;;;;;;5033093;28;20033;-49
2023/10/08 05:21:40;;;;;;;7.47;1.55;;;11.60;89.90;;;;;;5043456;28;20170;-48
2023/10/08 05:24:13;;;;;;;9.27;2.70;;;11.60;90.00;;;;;;5052940;28;20068;-48
2023/10/08 05:26:42;;;;;;;12.85;2.20;;;11.60;89.50;;;;;;5053101;28;20144;-48
2023/10/08 05:32:37;;;;;;;7.47;2.67;;;11.70;89.90;;;;;;5049916;28;20485;-48
2023/10/08 05:35:30;;;;;;;7.30;1.70;;;11.70;90.00;;;;;;5049362;28;20044;-48
2023/10/08 05:37:42;;;;;;;6.00;1.67;;;11.70;90.10;;;;;;5050518;28;20037;-47
2023/10/08 05:40:21;;;;;;;5.32;1.92;;;11.70;90.10;;;;;;5044014;28;20048;-48
2023/10/08 05:42:49;;;;;;;7.10;1.30;;;11.70;90.20;;;;;;5052627;28;20090;-49
2023/10/08 05:45:29;;;;;;;6.15;2.15;;;11.70;90.50;;;;;;5051969;28;20419;-47
2023/10/08 05:48:15;;;;;;;3.45;1.30;;;11.70;90.30;;;;;;5052114;28;20106;-53
2023/10/08 05:51:13;;;;;;;6.88;2.10;;;11.60;90.10;;;;;;5049539;28;20032;-50
2023/10/08 05:53:44;;;;;;;6.63;1.00;;;11.70;89.70;;;;;;5051719;28;20438;-51
2023/10/08 05:56:28;;;;;;;6.15;1.48;;;11.60;89.70;;;;;;5050905;28;20032;-48
2023/10/08 05:59:15;;;;;;;7.97;1.70;;;11.60;89.70;;;;;;5049520;28;20040;-49
2023/10/08 06:01:45;;;;;;;6.45;1.77;;;11.70;89.90;;;;;;5051091;28;20035;-51
2023/10/08 06:07:20;;;;;;;4.55;1.27;;;11.70;90.00;;;;;;5015246;28;20611;-48
2023/10/08 06:10:02;;;;;;;6.18;1.48;;;11.70;90.20;;;;;;5045147;28;20025;-48
2023/10/08 06:12:44;;;;;;;6.43;1.50;;;11.80;90.40;;;;;;5052353;28;20037;-48
2023/10/08 06:15:12;;;;;;;5.25;1.33;;;11.80;90.40;;;;;;5051254;28;20052;-47
2023/10/08 06:18:04;;;;;;;7.63;2.17;;;11.80;90.30;;;;;;5052954;28;20044;-47
2023/10/08 06:20:30;;;;;;;6.03;1.20;;;11.80;90.20;;;;;;5051876;28;20033;-52
2023/10/08 06:23:01;;;;;;;4.45;1.65;;;11.80;90.10;;;;;;5052096;28;20111;-49
2023/10/08 06:25:30;;;;;;;4.70;1.52;;;11.90;90.00;;;;;;5052669;28;20025;-48
2023/10/08 06:27:57;;;;;;;8.60;2.50;;;11.80;90.00;;;;;;5047484;28;20079;-49
2023/10/08 06:30:28;;;;;;;6.40;3.00;;;11.80;90.20;;;;;;5032750;28;20087;-49
2023/10/08 06:32:56;;;;;;;7.40;2.53;;;11.80;90.00;;;;;;5032522;28;20037;-51
2023/10/08 06:35:26;;;;;;;11.57;2.60;;;11.80;90.00;;;;;;5047285;28;20051;-48
2023/10/08 06:37:55;;;;;;;10.43;2.33;;;11.80;90.00;;;;;;5049768;28;20040;-48
2023/10/08 06:40:44;;;;;;;8.40;2.13;;;11.80;90.00;;;;;;5047382;28;20104;-48
2023/10/08 06:43:24;;;;;;;4.03;1.80;;;11.70;89.60;;;;;;5041766;28;20041;-48
2023/10/08 06:45:58;;;;;;;4.53;1.73;;;11.70;89.90;;;;;;5051982;28;20045;-49
2023/10/08 06:48:25;;;;;;;6.95;1.92;;;11.70;89.80;;;;;;5034833;28;20071;-51
2023/10/08 06:50:56;;;;;;;4.90;1.73;;;11.70;89.90;;;;;;5045133;28;20406;-47
2023/10/08 06:53:47;;;;;;;4.03;1.25;;;11.70;89.70;;;;;;5032005;28;20413;-49
2023/10/08 06:56:20;;;;;;;4.20;1.17;;;11.70;89.60;;;;;;5016729;28;20509;-49
2023/10/08 06:58:48;;;;;;;5.28;1.55;;;11.70;89.20;;;;;;5052300;28;20366;-48
2023/10/08 07:01:38;;;;;;;4.35;1.17;;;11.80;89.50;;;;;;5050792;28;20032;-47
2023/10/08 07:04:11;;;;;;;5.32;1.30;;;11.70;88.90;;;;;;5051182;28;20024;-48
2023/10/08 07:06:46;;;;;;;4.28;1.50;;;11.70;88.00;;;;;;5052056;28;20091;-48
2023/10/08 07:12:14;;;;;;;5.22;1.33;;;11.90;88.30;;;;;;5039343;28;20072;-47
2023/10/08 07:14:43;;;;;;;4.15;1.25;;;11.90;88.50;;;;;;5050767;28;20041;-47
2023/10/08 07:17:19;;;;;;;6.82;2.00;;;12.00;88.20;;;;;;5049741;28;20048;-48
2023/10/08 07:19:50;;;;;;;8.07;3.28;;;12.20;88.40;;;;;;5047164;28;20103;-49
2023/10/08 07:22:28;;;;;;;5.35;1.10;;;12.20;87.00;;;;;;5049468;28;20029;-47
2023/10/08 07:24:57;;;;;;;10.68;1.80;;;12.40;87.00;;;;;;5051483;28;20017;-47
2023/10/08 07:27:31;;;;;;;7.88;1.67;;;12.50;86.40;;;;;;5050940;28;20025;-48
2023/10/08 07:30:02;;;;;;;11.02;2.05;;;12.70;85.30;;;;;;5042309;28;20403;-47
2023/10/08 07:32:30;;;;;;;8.27;1.13;;;12.80;82.20;;;;;;5049587;28;20040;-48
2023/10/08 07:35:25;;;;;;;6.88;1.33;;;12.90;82.60;;;;;;5050326;28;20114;-50
2023/10/08 07:37:48;;;;;;;5.90;1.10;;;12.90;82.70;;;;;;5049962;28;20037;-48
2023/10/08 07:40:15;;;;;;;5.55;1.30;;;12.90;82.60;;;;;;5041697;28;20032;-50
2023/10/08 07:42:44;;;;;;;6.47;1.05;;;12.90;82.20;;;;;;5051135;28;20029;-47
2023/10/08 07:45:17;;;;;;;3.73;0.77;;;12.90;81.90;;;;;;5051245;28;20103;-49
2023/10/08 07:47:44;;;;;;;6.32;1.42;;;12.90;81.30;;;;;;5045546;28;20743;-48
2023/10/08 07:50:13;;;;;;;8.38;1.40;;;13.20;81.60;;;;;;5047027;28;20025;-48
2023/10/08 07:52:44;;;;;;;3.83;1.05;;;13.50;80.80;;;;;;5049076;28;20033;-49
2023/10/08 07:55:17;;;;;;;4.85;1.10;;;13.60;80.30;;;;;;5049857;28;20061;-49
2023/10/08 07:57:44;;;;;;;7.80;1.67;;;13.60;80.20;;;;;;5050109;28;20602;-49
2023/10/08 08:00:25;;;;;;;4.35;1.17;;;13.50;79.60;;;;;;5052873;28;20035;-50
2023/10/08 08:02:54;;;;;;;3.95;0.95;;;13.50;78.90;;;;;;5047372;28;20376;-49
2023/10/08 08:05:22;;;;;;;9.60;1.17;;;13.60;79.40;;;;;;5053618;28;20029;-50
2023/10/08 08:07:49;;;;;;;7.45;2.08;;;13.70;78.90;;;;;;5052954;28;20036;-49
2023/10/08 08:10:15;;;;;;;5.75;1.25;;;13.90;79.30;;;;;;5053474;28;20057;-52
2023/10/08 08:12:44;;;;;;;6.75;1.42;;;14.10;79.80;;;;;;5052876;28;20100;-50
2023/10/08 08:15:15;;;;;;;4.45;1.35;;;14.10;79.60;;;;;;5051693;28;20030;-51
2023/10/08 08:17:43;;;;;;;4.00;1.17;;;14.20;79.40;;;;;;5054190;28;20017;-53
2023/10/08 08:20:22;;;;;;;6.95;1.67;;;14.20;78.20;;;;;;5052451;28;20037;-52
2023/10/08 08:22:54;;;;;;;5.70;1.53;;;14.40;78.00;;;;;;5053268;28;20039;-54
2023/10/08 08:25:34;;;;;;;5.53;1.20;;;14.70;77.40;;;;;;5035042;28;20025;-53
2023/10/08 08:28:00;;;;;;;6.40;1.70;;;14.90;77.50;;;;;;5047074;28;20063;-55
2023/10/08 08:30:27;;;;;;;6.05;1.30;;;15.00;77.00;;;;;;5036121;28;20040;-53
2023/10/08 08:32:56;;;;;;;4.00;1.08;;;15.20;75.60;;;;;;5052939;28;20434;-52
2023/10/08 08:35:24;;;;;;;4.68;1.17;;;15.20;74.90;;;;;;5053346;28;20470;-54
2023/10/08 08:37:51;;;;;;;3.60;1.07;;;15.10;74.20;;;;;;5051551;28;20025;-53
2023/10/08 08:40:24;;;;;;;4.85;1.45;;;14.90;74.10;;;;;;5052777;28;20083;-54
2023/10/08 08:42:52;;;;;;;6.07;1.40;;;14.80;74.90;;;;;;5035462;28;20837;-57
2023/10/08 08:45:21;;;;;;;7.30;1.30;;;14.90;76.10;;;;;;5054461;28;20086;-56
2023/10/08 08:47:47;;;;;;;4.97;1.08;;;14.90;74.90;;;;;;5053745;28;20075;-56
2023/10/08 08:50:13;;;;;;;3.20;1.15;;;15.20;74.50;;;;;;5038481;28;20035;-53
2023/10/08 08:52:40;;;;;;;6.80;1.48;;;15.50;75.20;;;;;;5049525;28;20124;-52
2023/10/08 08:55:14;;;;;;;4.93;1.77;;;15.70;73.70;;;;;;5016526;28;20064;-56
2023/10/08 08:57:52;;;;;;;3.25;1.00;;;15.80;73.40;;;;;;5032766;28;20056;-53
2023/10/08 09:00:20;;;;;;;5.60;1.90;;;15.70;72.30;;;;;;5046682;28;20025;-53
2023/10/08 09:02:49;;;;;;;3.63;1.13;;;15.40;70.70;;;;;;5053665;28;20086;-54
2023/10/08 09:08:09;;;;;;;4.97;1.20;;;15.70;70.60;;;;;;5033721;28;20087;-54
2023/10/08 09:10:38;;;;;;;3.67;1.15;;;15.90;70.60;;;;;;5032292;28;20807;-53
2023/10/08 09:13:07;;;;;;;4.40;1.38;;;16.00;69.80;;;;;;5020805;28;20053;-53
2023/10/08 09:15:34;;;;;;;6.82;1.40;;;16.20;69.60;;;;;;5032538;28;20044;-51
2023/10/08 09:18:03;;;;;;;4.07;1.48;;;16.30;68.70;;;;;;5035550;28;20038;-52
2023/10/08 09:20:31;;;;;;;3.97;1.10;;;16.50;66.60;;;;;;5051792;28;20021;-51
2023/10/08 09:23:17;;;;;;;4.28;1.10;;;16.80;66.60;;;;;;5032727;28;20366;-51
2023/10/08 09:25:49;;;;;;;4.25;1.42;;;16.90;65.10;;;;;;5024035;28;20033;-49
2023/10/08 09:28:18;;;;;;;3.42;1.30;;;16.90;65.70;;;;;;5052891;28;20041;-49
2023/10/08 09:30:45;;;;;;;3.95;0.80;;;16.60;66.50;;;;;;5034878;28;20187;-49
2023/10/08 09:33:21;;;;;;;3.70;1.25;;;16.40;64.80;;;;;;5023553;28;20491;-49
2023/10/08 09:35:47;;;;;;;3.22;0.93;;;16.30;64.60;;;;;;5037096;28;20100;-51
2023/10/08 09:38:14;;;;;;;3.90;1.20;;;16.30;66.80;;;;;;5048164;28;20108;-52
2023/10/08 09:40:44;;;;;;;2.50;1.08;;;16.10;64.60;;;;;;5042797;28;20662;-50
2023/10/08 09:43:16;;;;;;;5.65;1.65;;;15.80;63.70;;;;;;5050263;28;20032;-54
2023/10/08 09:45:59;;;;;;;5.20;1.10;;;15.60;64.80;;;;;;5051755;28;20033;-54
2023/10/08 09:48:27;;;;;;;2.55;0.88;;;15.40;65.00;;;;;;5045528;28;20037;-52
2023/10/08 09:50:58;;;;;;;2.33;0.85;;;15.30;66.10;;;;;;5014694;28;20116;-54
2023/10/08 09:53:41;;;;;;;3.90;1.05;;;15.20;66.10;;;;;;5030530;28;20033;-55
2023/10/08 09:56:15;;;;;;;6.22;1.25;;;14.90;66.20;;;;;;4998936;28;20021;-54
2023/10/08 09:58:44;;;;;;;2.13;0.80;;;14.70;66.30;;;;;;5039718;28;20469;-53
2023/10/08 10:01:12;;;;;;;2.80;0.63;;;14.60;65.90;;;;;;5051512;28;20082;-51
2023/10/08 10:03:42;;;;;;;2.70;0.85;;;14.50;66.80;;;;;;5034541;28;20060;-52
2023/10/08 10:06:14;;;;;;;3.55;1.00;;;14.50;68.20;;;;;;5033496;28;20037;-52
2023/10/08 10:08:42;;;;;;;2.85;0.80;;;14.50;67.80;;;;;;5015100;28;20048;-53
2023/10/08 10:11:10;;;;;;;3.35;0.88;;;14.50;69.90;;;;;;5050148;28;20110;-53
2023/10/08 10:13:52;;;;;;;1.80;0.77;;;14.50;66.70;;;;;;5048704;28;20041;-55
2023/10/08 10:16:26;;;;;;;4.95;1.02;;;14.90;67.70;;;;;;5014925;28;20025;-51
2023/10/08 10:18:57;;;;;;;2.22;0.70;;;15.30;66.30;;;;;;5032544;28;20485;-52
2023/10/08 10:21:42;;;;;;;1.45;0.65;;;15.60;66.00;;;;;;5032447;28;20124;-54
2023/10/08 10:24:37;;;;;;;2.05;0.88;;;15.70;66.00;;;;;;5032883;28;20568;-52
2023/10/08 10:27:19;;;;;;;4.70;0.82;;;15.60;64.20;;;;;;5052098;28;20090;-52
2023/10/08 10:29:48;;;;;;;2.25;0.80;;;15.40;66.30;;;;;;5016003;28;20799;-54
2023/10/08 10:32:15;;;;;;;1.57;0.80;;;15.30;63.10;;;;;;5015118;28;20045;-53
2023/10/08 10:34:51;;;;;;;4.25;0.90;;;15.20;65.40;;;;;;5025629;28;20319;-53
2023/10/08 10:37:22;;;;;;;2.75;1.10;;;15.20;66.80;;;;;;5050170;28;20028;-51
2023/10/08 10:40:00;;;;;;;3.40;0.80;;;15.30;67.90;;;;;;5050664;28;20033;-53
2023/10/08 10:42:28;;;;;;;2.28;0.98;;;15.30;66.00;;;;;;5050769;28;20377;-52
2023/10/08 10:44:56;;;;;;;2.58;1.00;;;15.40;66.20;;;;;;5049973;28;20036;-49
2023/10/08 10:47:26;;;;;;;3.50;0.98;;;15.50;66.70;;;;;;5029732;28;20110;-48
2023/10/08 10:55:22;;;;;;;4.72;1.42;;;15.40;65.70;;;;;;5048257;28;20033;-47
2023/10/08 10:57:56;;;;;;;2.70;1.00;;;15.40;64.80;;;;;;5032078;28;20049;-48
2023/10/08 11:03:23;;;;;;;2.20;1.00;;;15.80;64.40;;;;;;5052223;28;20485;-48
2023/10/08 11:06:05;;;;;;;3.65;0.90;;;16.30;64.40;;;;;;5045995;28;20120;-49
2023/10/08 11:08:37;;;;;;;2.35;1.13;;;16.30;60.70;;;;;;5034994;28;20470;-47
2023/10/08 11:11:05;;;;;;;3.00;0.88;;;16.30;63.00;;;;;;5022752;28;20128;-48
2023/10/08 11:13:41;;;;;;;2.88;0.82;;;16.30;65.30;;;;;;5031232;28;20033;-48
2023/10/08 11:16:09;;;;;;;4.25;0.90;;;16.20;63.00;;;;;;5031953;28;20029;-49
2023/10/08 11:18:42;;;;;;;3.90;0.85;;;16.00;62.10;;;;;;5029841;28;20033;-52
2023/10/08 11:21:25;;;;;;;2.80;0.90;;;15.80;62.00;;;;;;5043747;28;20434;-55
2023/10/08 11:24:08;;;;;;;2.67;0.80;;;15.80;64.30;;;;;;5049780;28;20110;-54
2023/10/08 11:26:39;;;;;;;2.72;0.95;;;15.70;64.50;;;;;;5029769;28;20069;-48
2023/10/08 11:29:14;;;;;;;2.85;0.95;;;15.50;62.20;;;;;;5033130;28;20057;-48
2023/10/08 11:31:42;;;;;;;7.30;1.00;;;15.40;62.10;;;;;;5001894;28;20076;-48
2023/10/08 11:34:13;;;;;;;1.83;1.00;;;15.40;65.40;;;;;;5023610;28;20048;-48
2023/10/08 11:36:59;;;;;;;2.55;1.33;;;15.40;66.70;;;;;;5035373;28;20100;-48
2023/10/08 11:39:31;;;;;;;3.30;1.00;;;15.40;64.90;;;;;;5028153;28;20030;-48
2023/10/08 11:44:59;;;;;;;2.20;1.05;;;15.40;62.40;;;;;;5033788;28;20040;-47
2023/10/08 11:47:35;;;;;;;2.08;0.68;;;15.40;61.20;;;;;;5035450;28;20094;-47
2023/10/08 11:50:10;;;;;;;3.03;1.02;;;15.50;63.40;;;;;;5031260;28;20037;-50
2023/10/08 11:52:41;;;;;;;2.42;0.95;;;15.50;63.00;;;;;;5032819;28;20022;-49
2023/10/08 11:55:20;;;;;;;5.00;2.05;;;15.50;63.40;;;;;;5030388;28;20040;-48
2023/10/08 11:57:50;;;;;;;4.13;2.05;;;15.50;64.70;;;;;;5008074;28;20044;-49
2023/10/08 12:00:24;;;;;;;2.47;1.00;;;15.60;65.40;;;;;;5027757;28;20033;-48
2023/10/08 12:02:54;;;;;;;2.05;0.80;;;15.70;65.20;;;;;;5033149;28;20426;-48
2023/10/08 12:05:24;;;;;;;;;;;15.80;66.20;;;;;;5029880;28;20038;-51
2023/10/08 12:07:58;;;;;;;;;;;15.90;64.80;;;;;;5017658;28;19917;-48
2023/10/08 12:10:31;;;;;;;1.98;0.88;;;15.90;63.50;;;;;;5027404;28;20489;-51
2023/10/08 12:13:18;;;;;;;2.60;0.90;;;15.80;64.00;;;;;;5023686;28;20092;-49
2023/10/08 12:15:47;;;;;;;2.42;1.17;;;15.80;63.60;;;;;;5025530;28;20026;-49
2023/10/08 12:18:15;;;;;;;3.22;1.00;;;15.70;61.40;;;;;;5024021;28;20025;-49
2023/10/08 12:20:44;;;;;;;3.53;0.98;;;15.60;60.70;;;;;;5024312;28;20033;-47
2023/10/08 12:23:31;;;;;;;2.78;0.80;;;15.60;62.90;;;;;;5025284;28;20045;-48
2023/10/08 12:26:08;;;;;;;3.35;0.98;;;15.60;62.30;;;;;;5026645;28;20044;-49
2023/10/08 12:28:38;;;;;;;3.60;1.42;;;15.50;60.90;;;;;;5026148;28;20025;-48
2023/10/08 12:31:03;;;;;;;3.45;1.00;;;15.60;62.20;;;;;;5021765;28;20041;-48
2023/10/08 12:33:31;;;;;;;3.17;1.25;;;15.60;63.30;;;;;;5024701;28;20497;-48
2023/10/08 12:36:10;;;;;;;2.28;1.00;;;15.70;63.70;;;;;;5023211;28;20033;-47
2023/10/08 12:38:41;;;;;;;4.28;0.93;;;15.80;63.80;;;;;;5024537;28;20035;-51
2023/10/08 12:41:13;;;;;;;2.92;1.30;;;15.70;62.50;;;;;;5005399;28;20037;-48
2023/10/08 12:43:45;;;;;;;2.38;0.90;;;15.80;61.90;;;;;;5005794;28;20033;-49
2023/10/08 12:46:23;;;;;;;1.45;0.68;;;15.90;61.70;;;;;;5026015;28;20118;-50
2023/10/08 12:48:54;;;;;;;2.70;0.80;;;15.80;63.00;;;;;;5025208;28;20033;-50
2023/10/08 12:51:31;;;;;;;2.97;0.90;;;15.90;63.10;;;;;;5023815;28;20034;-51
2023/10/08 12:54:06;;;;;;;2.78;0.85;;;15.90;63.90;;;;;;5026519;28;20324;-50
2023/10/08 12:56:36;;;;;;;3.10;1.10;;;15.90;65.20;;;;;;5011953;28;20099;-52
2023/10/08 12:59:15;;;;;;;3.05;0.82;;;15.90;64.80;;;;;;5037685;28;20029;-48
2023/10/08 13:01:54;;;;;;;4.78;1.08;;;16.00;64.50;;;;;;5043568;28;20100;-47
2023/10/08 13:04:27;;;;;;;2.92;0.90;;;16.10;63.40;;;;;;5023376;28;20042;-47
2023/10/08 13:07:00;;;;;;;2.50;0.80;;;16.20;62.70;;;;;;5026162;28;20053;-51
2023/10/08 13:09:26;;;;;;;3.55;0.80;;;16.10;64.40;;;;;;5025330;28;20418;-49
2023/10/08 13:11:54;;;;;;;5.13;1.10;;;16.20;63.50;;;;;;5005687;28;20129;-48
2023/10/08 13:14:22;;;;;;;5.38;1.23;;;16.20;62.10;;;;;;4986061;28;20340;-51
2023/10/08 13:16:53;;;;;;;2.45;0.90;;;16.20;62.10;;;;;;4984786;28;20034;-54
2023/10/08 13:19:23;;;;;;;3.13;1.23;;;16.20;61.30;;;;;;4981784;28;20034;-48
2023/10/08 13:21:54;;;;;;;;;;;16.10;59.70;;;;;;5002112;28;20397;-47
2023/10/08 13:24:21;;;;;;;2.55;1.00;;;16.00;60.80;;;;;;4981513;28;20267;-50
2023/10/08 13:26:50;;;;;;;2.05;0.88;;;16.00;59.20;;;;;;4994172;28;20203;-47
2023/10/08 13:29:18;;;;;;;2.45;1.10;;;16.00;63.00;;;;;;5001301;28;20117;-47
2023/10/08 13:31:46;;;;;;;2.45;1.15;;;15.90;62.10;;;;;;4985451;28;20022;-49
2023/10/08 13:34:12;;;;;;;4.07;1.42;;;15.90;64.00;;;;;;4984886;28;20129;-50
2023/10/08 13:36:39;;;;;;;4.72;1.50;;;15.80;62.90;;;;;;4990226;28;20068;-49
2023/10/08 13:39:17;;;;;;;5.18;1.35;;;15.70;62.50;;;;;;4984634;28;20034;-50
2023/10/08 13:41:52;;;;;;;3.25;0.70;;;15.70;63.30;;;;;;5000007;28;20463;-49
2023/10/08 13:44:31;;;;;;;3.13;1.17;;;15.60;62.80;;;;;;4985515;28;20045;-48
2023/10/08 13:47:05;;;;;;;2.30;1.08;;;15.60;64.50;;;;;;4984773;28;20038;-49
2023/10/08 13:49:32;;;;;;;1.60;0.68;;;15.60;65.40;;;;;;4984820;28;20375;-48
2023/10/08 13:52:02;;;;;;;4.72;1.15;;;15.50;64.90;;;;;;4984392;28;20054;-49
2023/10/08 13:54:39;;;;;;;5.18;1.33;;;15.40;64.30;;;;;;4983727;28;20037;-48
2023/10/08 13:57:15;;;;;;;3.50;1.00;;;15.40;64.10;;;;;;4985989;28;20112;-47
2023/10/08 13:59:42;;;;;;;3.80;0.95;;;15.40;64.50;;;;;;4983546;28;20153;-51
2023/10/08 14:02:14;;;;;;;3.67;0.82;;;15.40;64.40;;;;;;4984750;28;20104;-48
2023/10/08 14:04:50;;;;;;;3.00;0.88;;;15.30;63.70;;;;;;4984076;28;20077;-48
2023/10/08 14:07:17;;;;;;;3.15;1.00;;;15.30;64.50;;;;;;5007743;28;20038;-50
2023/10/08 14:09:45;;;;;;;3.13;1.45;;;15.30;66.20;;;;;;4985581;28;20345;-48
2023/10/08 14:12:17;;;;;;;3.90;1.45;;;15.30;64.70;;;;;;5021171;28;20050;-48